sensor_id;sensor_type;location;lat;lon;timestamp;pressure;altitude;pressure_sealevel;temperature;humidity
9257;BME280;4665;51.368;6.782;2023-03-25T00:02:08;100056.03;;;8.74;100.00
9257;BME280;4665;51.368;6.782;2023-03-25T00:04:33;100083.78;;;8.79;100.00
9257;BME280;4665;51.368;6.782;2023-03-25T00:06:59;100087.47;;;8.87;100.00
9257;BME280;4665;51.368;6.782;2023-03-25T00:09:25;100064.53;;;8.77;100.00
9257;BME280;4665;51.368;6.782;2023-03-25T00:11:51;100069.84;;;8.77;100.00
9257;BME280;4665;51.368;6.782;2023-03-25T00:14:17;100067.50;;;8.74;100.00
9257;BME280;4665;51.368;6.782;2023-03-25T00:16:43;100071.69;;;8.85;100.00
9257;BME280;4665;51.368;6.782;2023-03-25T00:19:16;100054.88;;;8.76;100.00
9257;BME280;4665;51.368;6.782;2023-03-25T00:21:41;100040.13;;;8.74;100.00
9257;BME280;4665;51.368;6.782;2023-03-25T00:24:09;100034.13;;;8.72;100.00
9257;BME280;4665;51.368;6.782;2023-03-25T00:26:37;100045.75;;;8.71;100.00
9257;BME280;4665;51.368;6.782;2023-03-25T00:29:09;100051.91;;;8.79;100.00
9257;BME280;4665;51.368;6.782;2023-03-25T00:31:34;100058.44;;;8.93;100.00
9257;BME280;4665;51.368;6.782;2023-03-25T00:34:00;100030.84;;;8.78;100.00
9257;BME280;4665;51.368;6.782;2023-03-25T00:36:25;100046.44;;;8.81;100.00
9257;BME280;4665;51.368;6.782;2023-03-25T00:38:51;100050.78;;;8.82;100.00
9257;BME280;4665;51.368;6.782;2023-03-25T00:41:21;100047.31;;;8.90;100.00
9257;BME280;4665;51.368;6.782;2023-03-25T00:43:51;100046.91;;;8.76;100.00
9257;BME280;4665;51.368;6.782;2023-03-25T00:46:16;100050.59;;;8.83;100.00
9257;BME280;4665;51.368;6.782;2023-03-25T00:48:42;100045.75;;;8.79;100.00
9257;BME280;4665;51.368;6.782;2023-03-25T00:51:08;100051.41;;;8.76;100.00
9257;BME280;4665;51.368;6.782;2023-03-25T00:53:37;100047.59;;;8.78;100.00
9257;BME280;4665;51.368;6.782;2023-03-25T00:56:03;100038.13;;;8.76;100.00
9257;BME280;4665;51.368;6.782;2023-03-25T00:58:28;100048.28;;;8.80;100.00
9257;BME280;4665;51.368;6.782;2023-03-25T01:00:54;100037.47;;;8.74;100.00
9257;BME280;4665;51.368;6.782;2023-03-25T01:03:26;100052.44;;;8.83;100.00
9257;BME280;4665;51.368;6.782;2023-03-25T01:05:55;100054.75;;;8.78;100.00
9257;BME280;4665;51.368;6.782;2023-03-25T01:08:22;100045.13;;;8.85;100.00
9257;BME280;4665;51.368;6.782;2023-03-25T01:10:51;100044.47;;;8.83;100.00
9257;BME280;4665;51.368;6.782;2023-03-25T01:13:18;100041.66;;;8.84;100.00
9257;BME280;4665;51.368;6.782;2023-03-25T01:15:43;100028.66;;;8.73;100.00
9257;BME280;4665;51.368;6.782;2023-03-25T01:18:08;100031.63;;;8.70;100.00
9257;BME280;4665;51.368;6.782;2023-03-25T01:20:34;100044.94;;;8.78;100.00
9257;BME280;4665;51.368;6.782;2023-03-25T01:22:59;100042.28;;;8.78;100.00
9257;BME280;4665;51.368;6.782;2023-03-25T01:25:25;100037.97;;;8.77;100.00
9257;BME280;4665;51.368;6.782;2023-03-25T01:27:50;100042.97;;;8.80;100.00
9257;BME280;4665;51.368;6.782;2023-03-25T01:30:16;100041.13;;;8.81;100.00
9257;BME280;4665;51.368;6.782;2023-03-25T01:32:41;100035.66;;;8.82;100.00
9257;BME280;4665;51.368;6.782;2023-03-25T01:35:07;100036.53;;;8.91;100.00
9257;BME280;4665;51.368;6.782;2023-03-25T01:37:32;100041.66;;;8.84;100.00
9257;BME280;4665;51.368;6.782;2023-03-25T01:40:01;100037.34;;;8.92;100.00
9257;BME280;4665;51.368;6.782;2023-03-25T01:42:29;100040.16;;;8.90;100.00
9257;BME280;4665;51.368;6.782;2023-03-25T01:45:15;100043.97;;;8.88;100.00
9257;BME280;4665;51.368;6.782;2023-03-25T01:47:43;100048.97;;;8.91;100.00
9257;BME280;4665;51.368;6.782;2023-03-25T01:50:10;100026.19;;;8.80;100.00
9257;BME280;4665;51.368;6.782;2023-03-25T01:52:42;100032.19;;;8.90;100.00
9257;BME280;4665;51.368;6.782;2023-03-25T01:55:08;100033.69;;;8.84;100.00
9257;BME280;4665;51.368;6.782;2023-03-25T01:57:34;100034.03;;;8.90;100.00
9257;BME280;4665;51.368;6.782;2023-03-25T02:00:01;100017.03;;;8.74;100.00
9257;BME280;4665;51.368;6.782;2023-03-25T02:02:32;100031.03;;;8.84;100.00
9257;BME280;4665;51.368;6.782;2023-03-25T02:05:29;100027.03;;;8.89;100.00
9257;BME280;4665;51.368;6.782;2023-03-25T02:07:56;100039.19;;;8.91;100.00
9257;BME280;4665;51.368;6.782;2023-03-25T02:10:22;100008.09;;;8.75;100.00
9257;BME280;4665;51.368;6.782;2023-03-25T02:12:48;100020.59;;;8.91;100.00
9257;BME280;4665;51.368;6.782;2023-03-25T02:15:16;100015.56;;;8.80;100.00
9257;BME280;4665;51.368;6.782;2023-03-25T02:27:13;100028.00;;;8.79;100.00
9257;BME280;4665;51.368;6.782;2023-03-25T02:29:43;100030.66;;;8.79;100.00
9257;BME280;4665;51.368;6.782;2023-03-25T02:32:49;100036.16;;;8.86;100.00
9257;BME280;4665;51.368;6.782;2023-03-25T02:41:29;100019.53;;;8.76;100.00
9257;BME280;4665;51.368;6.782;2023-03-25T02:44:09;100035.63;;;8.74;100.00
9257;BME280;4665;51.368;6.782;2023-03-25T02:46:40;100032.00;;;8.75;100.00
9257;BME280;4665;51.368;6.782;2023-03-25T02:49:18;100032.47;;;8.71;100.00
9257;BME280;4665;51.368;6.782;2023-03-25T02:51:52;100030.31;;;8.66;100.00
9257;BME280;4665;51.368;6.782;2023-03-25T02:54:21;100039.25;;;8.65;100.00
9257;BME280;4665;51.368;6.782;2023-03-25T02:56:49;100031.13;;;8.67;100.00
9257;BME280;4665;51.368;6.782;2023-03-25T02:59:23;100042.91;;;8.64;100.00
9257;BME280;4665;51.368;6.782;2023-03-25T03:01:50;100034.06;;;8.55;100.00
9257;BME280;4665;51.368;6.782;2023-03-25T03:04:23;100035.91;;;8.63;100.00
9257;BME280;4665;51.368;6.782;2023-03-25T03:06:50;100025.63;;;8.60;100.00
9257;BME280;4665;51.368;6.782;2023-03-25T03:09:24;100025.94;;;8.57;100.00
9257;BME280;4665;51.368;6.782;2023-03-25T03:19:39;100019.28;;;8.53;100.00
9257;BME280;4665;51.368;6.782;2023-03-25T03:22:34;100026.25;;;8.54;100.00
9257;BME280;4665;51.368;6.782;2023-03-25T03:25:38;100012.47;;;8.50;100.00
9257;BME280;4665;51.368;6.782;2023-03-25T03:28:14;100013.09;;;8.44;100.00
9257;BME280;4665;51.368;6.782;2023-03-25T03:31:05;100015.00;;;8.52;100.00
9257;BME280;4665;51.368;6.782;2023-03-25T03:33:38;100021.41;;;8.49;100.00
9257;BME280;4665;51.368;6.782;2023-03-25T03:36:08;100021.31;;;8.59;100.00
9257;BME280;4665;51.368;6.782;2023-03-25T03:38:40;99998.47;;;8.40;100.00
9257;BME280;4665;51.368;6.782;2023-03-25T03:41:10;100019.25;;;8.45;100.00
9257;BME280;4665;51.368;6.782;2023-03-25T03:43:54;100024.72;;;8.43;100.00
9257;BME280;4665;51.368;6.782;2023-03-25T03:48:59;100023.91;;;8.42;100.00
9257;BME280;4665;51.368;6.782;2023-03-25T03:51:29;100023.72;;;8.44;100.00
9257;BME280;4665;51.368;6.782;2023-03-25T03:54:04;100030.38;;;8.48;100.00
9257;BME280;4665;51.368;6.782;2023-03-25T04:01:58;100023.56;;;8.46;100.00
9257;BME280;4665;51.368;6.782;2023-03-25T04:04:24;100029.38;;;8.49;100.00
9257;BME280;4665;51.368;6.782;2023-03-25T04:07:00;100035.69;;;8.48;100.00
9257;BME280;4665;51.368;6.782;2023-03-25T04:09:56;100022.94;;;8.52;100.00
9257;BME280;4665;51.368;6.782;2023-03-25T04:12:28;100029.75;;;8.54;100.00
9257;BME280;4665;51.368;6.782;2023-03-25T04:14:55;100023.78;;;8.52;100.00
9257;BME280;4665;51.368;6.782;2023-03-25T04:17:24;100023.25;;;8.49;100.00
9257;BME280;4665;51.368;6.782;2023-03-25T04:19:49;100013.28;;;8.42;100.00
9257;BME280;4665;51.368;6.782;2023-03-25T04:22:19;100033.38;;;8.45;100.00
9257;BME280;4665;51.368;6.782;2023-03-25T04:24:45;100021.84;;;8.36;100.00
9257;BME280;4665;51.368;6.782;2023-03-25T04:27:15;100029.47;;;8.39;100.00
9257;BME280;4665;51.368;6.782;2023-03-25T04:29:40;100029.47;;;8.39;100.00
9257;BME280;4665;51.368;6.782;2023-03-25T04:32:08;100027.97;;;8.37;100.00
9257;BME280;4665;51.368;6.782;2023-03-25T04:34:34;100026.47;;;8.34;100.00
9257;BME280;4665;51.368;6.782;2023-03-25T04:37:00;100026.56;;;8.42;100.00
9257;BME280;4665;51.368;6.782;2023-03-25T04:39:26;100024.94;;;8.50;100.00
9257;BME280;4665;51.368;6.782;2023-03-25T04:41:53;100028.88;;;8.46;100.00
9257;BME280;4665;51.368;6.782;2023-03-25T04:44:20;100035.34;;;8.43;100.00
9257;BME280;4665;51.368;6.782;2023-03-25T04:46:47;100031.19;;;8.40;100.00
9257;BME280;4665;51.368;6.782;2023-03-25T04:49:18;100022.56;;;8.47;100.00
9257;BME280;4665;51.368;6.782;2023-03-25T04:51:48;100021.13;;;8.52;100.00
9257;BME280;4665;51.368;6.782;2023-03-25T04:54:16;100018.63;;;8.51;100.00
9257;BME280;4665;51.368;6.782;2023-03-25T04:56:41;100016.28;;;8.48;100.00
9257;BME280;4665;51.368;6.782;2023-03-25T04:59:07;100010.16;;;8.47;100.00
9257;BME280;4665;51.368;6.782;2023-03-25T05:01:36;100021.41;;;8.49;100.00
9257;BME280;4665;51.368;6.782;2023-03-25T05:04:07;100023.56;;;8.46;100.00
9257;BME280;4665;51.368;6.782;2023-03-25T05:06:34;100027.22;;;8.45;100.00
9257;BME280;4665;51.368;6.782;2023-03-25T05:09:03;100015.81;;;8.52;100.00
9257;BME280;4665;51.368;6.782;2023-03-25T05:11:30;100013.63;;;8.48;100.00
9257;BME280;4665;51.368;6.782;2023-03-25T05:13:56;100017.91;;;8.40;100.00
9257;BME280;4665;51.368;6.782;2023-03-25T05:16:22;100023.22;;;8.40;100.00
9257;BME280;4665;51.368;6.782;2023-03-25T05:18:47;99998.38;;;8.23;100.00
9257;BME280;4665;51.368;6.782;2023-03-25T05:21:13;100020.34;;;8.34;100.00
9257;BME280;4665;51.368;6.782;2023-03-25T05:23:38;100026.81;;;8.31;100.00
9257;BME280;4665;51.368;6.782;2023-03-25T05:26:06;100021.41;;;8.41;100.00
9257;BME280;4665;51.368;6.782;2023-03-25T05:28:32;100022.00;;;8.35;100.00
9257;BME280;4665;51.368;6.782;2023-03-25T05:30:58;100014.34;;;8.32;100.00
9257;BME280;4665;51.368;6.782;2023-03-25T05:33:23;100012.84;;;8.29;100.00
9257;BME280;4665;51.368;6.782;2023-03-25T05:35:49;100018.59;;;8.42;100.00
9257;BME280;4665;51.368;6.782;2023-03-25T05:38:15;100022.00;;;8.35;100.00
9257;BME280;4665;51.368;6.782;2023-03-25T05:40:45;100003.38;;;8.27;100.00
9257;BME280;4665;51.368;6.782;2023-03-25T05:43:13;100021.50;;;8.31;100.00
9257;BME280;4665;51.368;6.782;2023-03-25T05:45:40;100033.13;;;8.38;100.00
9257;BME280;4665;51.368;6.782;2023-03-25T05:48:05;100020.50;;;8.32;100.00
9257;BME280;4665;51.368;6.782;2023-03-25T05:50:31;100040.09;;;8.39;100.00
9257;BME280;4665;51.368;6.782;2023-03-25T05:52:56;100030.44;;;8.30;100.00
9257;BME280;4665;51.368;6.782;2023-03-25T05:55:24;100038.91;;;8.34;100.00
9257;BME280;4665;51.368;6.782;2023-03-25T05:57:50;100029.81;;;8.36;100.00
9257;BME280;4665;51.368;6.782;2023-03-25T06:00:16;100014.84;;;8.27;100.00
9257;BME280;4665;51.368;6.782;2023-03-25T06:02:44;100025.44;;;8.27;100.00
9257;BME280;4665;51.368;6.782;2023-03-25T06:05:10;100017.34;;;8.29;100.00
9257;BME280;4665;51.368;6.782;2023-03-25T06:07:39;100037.22;;;8.33;100.00
9257;BME280;4665;51.368;6.782;2023-03-25T06:10:10;100011.81;;;8.22;100.00
9257;BME280;4665;51.368;6.782;2023-03-25T06:12:36;100018.97;;;8.21;100.00
9257;BME280;4665;51.368;6.782;2023-03-25T06:15:15;100037.09;;;8.34;100.00
9257;BME280;4665;51.368;6.782;2023-03-25T06:17:54;100036.41;;;8.32;100.00
9257;BME280;4665;51.368;6.782;2023-03-25T06:20:20;100040.28;;;8.38;100.00
9257;BME280;4665;51.368;6.782;2023-03-25T06:22:46;100051.16;;;8.53;100.00
9257;BME280;4665;51.368;6.782;2023-03-25T06:25:14;100044.69;;;8.29;100.00
9257;BME280;4665;51.368;6.782;2023-03-25T06:27:41;100045.31;;;8.23;100.00
9257;BME280;4665;51.368;6.782;2023-03-25T06:30:10;100049.78;;;8.22;100.00
9257;BME280;4665;51.368;6.782;2023-03-25T06:32:36;100045.78;;;8.18;100.00
9257;BME280;4665;51.368;6.782;2023-03-25T06:35:03;100060.72;;;8.19;100.00
9257;BME280;4665;51.368;6.782;2023-03-25T06:37:29;100038.78;;;8.09;100.00
9257;BME280;4665;51.368;6.782;2023-03-25T06:39:55;100053.72;;;8.10;100.00
9257;BME280;4665;51.368;6.782;2023-03-25T06:42:24;100047.19;;;8.05;100.00
9257;BME280;4665;51.368;6.782;2023-03-25T06:44:50;100067.25;;;8.07;100.00
9257;BME280;4665;51.368;6.782;2023-03-25T06:47:15;100072.28;;;8.10;100.00
9257;BME280;4665;51.368;6.782;2023-03-25T06:49:40;100067.72;;;8.02;100.00
9257;BME280;4665;51.368;6.782;2023-03-25T06:52:06;100056.75;;;7.97;100.00
9257;BME280;4665;51.368;6.782;2023-03-25T06:54:31;100060.03;;;7.91;100.00
9257;BME280;4665;51.368;6.782;2023-03-25T06:56:57;100075.41;;;8.06;100.00
9257;BME280;4665;51.368;6.782;2023-03-25T06:59:22;100073.72;;;8.05;100.00
9257;BME280;4665;51.368;6.782;2023-03-25T07:01:48;100082.69;;;8.04;100.00
9257;BME280;4665;51.368;6.782;2023-03-25T07:04:13;100071.38;;;8.01;100.00
9257;BME280;4665;51.368;6.782;2023-03-25T07:06:39;100059.41;;;7.97;100.00
9257;BME280;4665;51.368;6.782;2023-03-25T07:09:05;100065.94;;;8.03;100.00
9257;BME280;4665;51.368;6.782;2023-03-25T07:11:31;100075.41;;;8.06;100.00
9257;BME280;4665;51.368;6.782;2023-03-25T07:13:57;100061.09;;;7.98;100.00
9257;BME280;4665;51.368;6.782;2023-03-25T07:16:22;100041.53;;;7.99;100.00
9257;BME280;4665;51.368;6.782;2023-03-25T07:18:49;100059.59;;;8.22;100.00
9257;BME280;4665;51.368;6.782;2023-03-25T07:21:15;100043.31;;;8.17;100.00
9257;BME280;4665;51.368;6.782;2023-03-25T07:23:41;100048.22;;;8.12;100.00
9257;BME280;4665;51.368;6.782;2023-03-25T07:26:06;100041.28;;;8.11;100.00
9257;BME280;4665;51.368;6.782;2023-03-25T07:28:32;100057.16;;;8.29;100.00
9257;BME280;4665;51.368;6.782;2023-03-25T07:30:57;100063.78;;;8.33;100.00
9257;BME280;4665;51.368;6.782;2023-03-25T07:33:23;100056.75;;;8.23;100.00
9257;BME280;4665;51.368;6.782;2023-03-25T07:35:48;100063.94;;;8.31;100.00
9257;BME280;4665;51.368;6.782;2023-03-25T07:38:13;100067.44;;;8.32;100.00
9257;BME280;4665;51.368;6.782;2023-03-25T07:40:39;100055.53;;;8.36;100.00
9257;BME280;4665;51.368;6.782;2023-03-25T07:43:05;100050.28;;;8.26;100.00
9257;BME280;4665;51.368;6.782;2023-03-25T07:45:30;100057.16;;;8.29;100.00
9257;BME280;4665;51.368;6.782;2023-03-25T07:47:56;100053.59;;;8.20;100.00
9257;BME280;4665;51.368;6.782;2023-03-25T07:50:22;100060.09;;;8.26;100.00
9257;BME280;4665;51.368;6.782;2023-03-25T07:52:47;100071.75;;;8.33;100.00
9257;BME280;4665;51.368;6.782;2023-03-25T07:55:13;100064.16;;;8.38;100.00
9257;BME280;4665;51.368;6.782;2023-03-25T07:57:41;100061.13;;;8.33;100.00
9257;BME280;4665;51.368;6.782;2023-03-25T08:00:07;100068.94;;;8.34;100.00
9257;BME280;4665;51.368;6.782;2023-03-25T08:02:33;100059.00;;;8.36;100.00
9257;BME280;4665;51.368;6.782;2023-03-25T08:04:59;100072.19;;;8.46;100.00
9257;BME280;4665;51.368;6.782;2023-03-25T08:07:24;100063.03;;;8.40;100.00
9257;BME280;4665;51.368;6.782;2023-03-25T08:09:52;100067.41;;;8.50;100.00
9257;BME280;4665;51.368;6.782;2023-03-25T08:12:18;100079.72;;;8.59;100.00
9257;BME280;4665;51.368;6.782;2023-03-25T08:14:43;100091.09;;;8.77;100.00
9257;BME280;4665;51.368;6.782;2023-03-25T08:17:09;100082.13;;;8.78;100.00
9257;BME280;4665;51.368;6.782;2023-03-25T08:19:34;100092.47;;;8.98;100.00
9257;BME280;4665;51.368;6.782;2023-03-25T08:22:01;100102.63;;;9.02;100.00
9257;BME280;4665;51.368;6.782;2023-03-25T08:24:27;100089.34;;;9.02;100.00
9257;BME280;4665;51.368;6.782;2023-03-25T08:26:54;100080.84;;;8.91;100.00
9257;BME280;4665;51.368;6.782;2023-03-25T08:29:20;100087.34;;;8.96;100.00
9257;BME280;4665;51.368;6.782;2023-03-25T08:31:45;100085.19;;;9.00;100.00
9257;BME280;4665;51.368;6.782;2023-03-25T08:34:17;100088.50;;;9.02;100.00
9257;BME280;4665;51.368;6.782;2023-03-25T08:36:43;100086.69;;;9.02;100.00
9257;BME280;4665;51.368;6.782;2023-03-25T08:39:08;100089.53;;;9.09;100.00
9257;BME280;4665;51.368;6.782;2023-03-25T08:41:39;100077.41;;;9.06;100.00
9257;BME280;4665;51.368;6.782;2023-03-25T08:44:05;100090.00;;;9.04;100.00
9257;BME280;4665;51.368;6.782;2023-03-25T08:46:31;100101.31;;;9.06;100.00
9257;BME280;4665;51.368;6.782;2023-03-25T08:48:56;100095.84;;;9.08;100.00
9257;BME280;4665;51.368;6.782;2023-03-25T08:51:22;100092.53;;;9.06;100.00
9257;BME280;4665;51.368;6.782;2023-03-25T08:53:47;100092.72;;;9.21;100.00
9257;BME280;4665;51.368;6.782;2023-03-25T08:56:13;100078.44;;;9.22;100.00
9257;BME280;4665;51.368;6.782;2023-03-25T08:58:39;100081.25;;;9.20;100.00
9257;BME280;4665;51.368;6.782;2023-03-25T09:01:05;100095.59;;;9.36;100.00
9257;BME280;4665;51.368;6.782;2023-03-25T09:03:31;100091.25;;;9.35;100.00
9257;BME280;4665;51.368;6.782;2023-03-25T09:06:02;100070.47;;;9.30;100.00
9257;BME280;4665;51.368;6.782;2023-03-25T09:08:31;100080.44;;;9.28;100.00
9257;BME280;4665;51.368;6.782;2023-03-25T09:10:57;100079.78;;;9.26;100.00
9257;BME280;4665;51.368;6.782;2023-03-25T09:13:23;100086.13;;;9.33;100.00
9257;BME280;4665;51.368;6.782;2023-03-25T09:15:48;100101.91;;;9.43;100.00
9257;BME280;4665;51.368;6.782;2023-03-25T09:18:14;100070.81;;;9.27;100.00
9257;BME280;4665;51.368;6.782;2023-03-25T09:20:39;100099.91;;;9.29;100.00
9257;BME280;4665;51.368;6.782;2023-03-25T09:23:05;100094.06;;;9.25;100.00
9257;BME280;4665;51.368;6.782;2023-03-25T09:25:31;100092.22;;;9.17;100.00
9257;BME280;4665;51.368;6.782;2023-03-25T09:27:56;100110.16;;;9.23;100.00
9257;BME280;4665;51.368;6.782;2023-03-25T09:30:22;100086.19;;;9.07;100.00
9257;BME280;4665;51.368;6.782;2023-03-25T09:32:47;100091.34;;;9.09;100.00
9257;BME280;4665;51.368;6.782;2023-03-25T09:35:13;100085.56;;;9.13;100.00
9257;BME280;4665;51.368;6.782;2023-03-25T09:37:38;100085.91;;;9.18;100.00
9257;BME280;4665;51.368;6.782;2023-03-25T09:40:04;100082.44;;;9.26;100.00
9257;BME280;4665;51.368;6.782;2023-03-25T09:42:39;100093.59;;;9.38;100.00
9257;BME280;4665;51.368;6.782;2023-03-25T09:50:34;100084.47;;;9.57;100.00
9257;BME280;4665;51.368;6.782;2023-03-25T09:55:29;100083.66;;;9.73;100.00
9257;BME280;4665;51.368;6.782;2023-03-25T09:58:17;100083.00;;;9.71;100.00
9257;BME280;4665;51.368;6.782;2023-03-25T10:00:50;100098.94;;;9.79;100.00
9257;BME280;4665;51.368;6.782;2023-03-25T10:03:38;100090.97;;;9.71;100.00
9257;BME280;4665;51.368;6.782;2023-03-25T10:06:14;100082.34;;;9.68;100.00
9257;BME280;4665;51.368;6.782;2023-03-25T10:08:56;100117.91;;;9.84;100.00
9257;BME280;4665;51.368;6.782;2023-03-25T10:14:19;100110.56;;;9.69;100.00
9257;BME280;4665;51.368;6.782;2023-03-25T10:22:14;100103.28;;;9.96;100.00
9257;BME280;4665;51.368;6.782;2023-03-25T10:24:49;100113.41;;;10.09;100.00
9257;BME280;4665;51.368;6.782;2023-03-25T10:27:38;100125.22;;;10.15;100.00
9257;BME280;4665;51.368;6.782;2023-03-25T10:35:05;100111.22;;;10.21;100.00
9257;BME280;4665;51.368;6.782;2023-03-25T10:37:36;100121.22;;;10.27;100.00
9257;BME280;4665;51.368;6.782;2023-03-25T10:40:18;100124.56;;;10.29;100.00
9257;BME280;4665;51.368;6.782;2023-03-25T10:43:17;100111.41;;;10.19;100.00
9257;BME280;4665;51.368;6.782;2023-03-25T10:45:46;100126.53;;;10.27;100.00
9257;BME280;4665;51.368;6.782;2023-03-25T10:48:17;100120.06;;;10.29;100.00
9257;BME280;4665;51.368;6.782;2023-03-25T10:50:45;100138.88;;;10.36;100.00
9257;BME280;4665;51.368;6.782;2023-03-25T10:53:31;100121.06;;;10.37;100.00
9257;BME280;4665;51.368;6.782;2023-03-25T10:58:45;100120.91;;;10.30;100.00
9257;BME280;4665;51.368;6.782;2023-03-25T11:01:14;100138.53;;;10.39;100.00
9257;BME280;4665;51.368;6.782;2023-03-25T11:03:42;100146.69;;;10.05;100.00
9257;BME280;4665;51.368;6.782;2023-03-25T11:06:38;100146.69;;;9.97;100.00
9257;BME280;4665;51.368;6.782;2023-03-25T11:09:16;100151.84;;;9.82;100.00
9257;BME280;4665;51.368;6.782;2023-03-25T11:11:47;100166.44;;;9.86;100.00
9257;BME280;4665;51.368;6.782;2023-03-25T11:14:14;100150.31;;;9.71;100.00
9257;BME280;4665;51.368;6.782;2023-03-25T11:19:14;100136.28;;;9.44;100.00
9257;BME280;4665;51.368;6.782;2023-03-25T11:21:45;100156.72;;;9.44;100.00
9257;BME280;4665;51.368;6.782;2023-03-25T11:24:14;100149.44;;;9.38;100.00
9257;BME280;4665;51.368;6.782;2023-03-25T11:26:44;100137.75;;;9.22;100.00
9257;BME280;4665;51.368;6.782;2023-03-25T11:29:15;100164.34;;;9.31;100.00
9257;BME280;4665;51.368;6.782;2023-03-25T11:31:43;100147.38;;;9.23;100.00
9257;BME280;4665;51.368;6.782;2023-03-25T11:34:20;100135.91;;;9.15;100.00
9257;BME280;4665;51.368;6.782;2023-03-25T11:39:33;100152.44;;;9.51;100.00
9257;BME280;4665;51.368;6.782;2023-03-25T11:42:12;100154.16;;;9.85;100.00
9257;BME280;4665;51.368;6.782;2023-03-25T11:44:38;100159.63;;;10.16;100.00
9257;BME280;4665;51.368;6.782;2023-03-25T11:47:06;100140.69;;;10.19;100.00
9257;BME280;4665;51.368;6.782;2023-03-25T11:49:37;100153.34;;;10.17;100.00
9257;BME280;4665;51.368;6.782;2023-03-25T11:52:07;100143.66;;;10.16;100.00
9257;BME280;4665;51.368;6.782;2023-03-25T11:54:34;100146.34;;;10.08;100.00
9257;BME280;4665;51.368;6.782;2023-03-25T11:57:17;100164.28;;;9.98;100.00
9257;BME280;4665;51.368;6.782;2023-03-25T11:59:46;100169.78;;;10.04;100.00
9257;BME280;4665;51.368;6.782;2023-03-25T12:02:27;100174.78;;;9.91;100.00
9257;BME280;4665;51.368;6.782;2023-03-25T12:05:03;100166.47;;;10.02;100.00
9257;BME280;4665;51.368;6.782;2023-03-25T12:10:09;100158.16;;;9.89;100.00
9257;BME280;4665;51.368;6.782;2023-03-25T12:13:06;100169.31;;;10.01;100.00
9257;BME280;4665;51.368;6.782;2023-03-25T12:18:31;100172.81;;;10.26;100.00
9257;BME280;4665;51.368;6.782;2023-03-25T12:23:58;100152.34;;;10.43;100.00
9257;BME280;4665;51.368;6.782;2023-03-25T12:30:00;100154.06;;;10.91;100.00
9257;BME280;4665;51.368;6.782;2023-03-25T12:35:29;100138.44;;;10.72;100.00
9257;BME280;4665;51.368;6.782;2023-03-25T12:43:21;100133.31;;;11.10;100.00
9257;BME280;4665;51.368;6.782;2023-03-25T12:46:05;100127.19;;;11.32;100.00
9257;BME280;4665;51.368;6.782;2023-03-25T12:54:57;100127.28;;;11.47;100.00
9257;BME280;4665;51.368;6.782;2023-03-25T13:07:43;100136.81;;;11.42;100.00
9257;BME280;4665;51.368;6.782;2023-03-25T13:10:18;100154.78;;;11.16;100.00
9257;BME280;4665;51.368;6.782;2023-03-25T13:12:50;100156.00;;;10.98;100.00
9257;BME280;4665;51.368;6.782;2023-03-25T13:15:40;100185.44;;;10.48;100.00
9257;BME280;4665;51.368;6.782;2023-03-25T13:18:30;100181.63;;;10.10;100.00
9257;BME280;4665;51.368;6.782;2023-03-25T13:21:06;100169.97;;;9.95;100.00
9257;BME280;4665;51.368;6.782;2023-03-25T13:23:36;100178.44;;;9.90;100.00
9257;BME280;4665;51.368;6.782;2023-03-25T13:26:09;100176.44;;;9.92;100.00
9257;BME280;4665;51.368;6.782;2023-03-25T13:28:43;100155.31;;;9.99;100.00
9257;BME280;4665;51.368;6.782;2023-03-25T13:31:23;100177.09;;;10.02;100.00
9257;BME280;4665;51.368;6.782;2023-03-25T13:36:38;100151.97;;;9.72;100.00
9257;BME280;4665;51.368;6.782;2023-03-25T13:39:19;100161.97;;;9.70;100.00
9257;BME280;4665;51.368;6.782;2023-03-25T13:41:52;100150.44;;;9.53;100.00
9257;BME280;4665;51.368;6.782;2023-03-25T13:44:37;100167.59;;;9.59;100.00
9257;BME280;4665;51.368;6.782;2023-03-25T13:47:24;100164.94;;;9.59;100.00
9257;BME280;4665;51.368;6.782;2023-03-25T13:50:29;100162.09;;;9.52;100.00
9257;BME280;4665;51.368;6.782;2023-03-25T13:53:06;100169.06;;;9.53;100.00
9257;BME280;4665;51.368;6.782;2023-03-25T13:55:42;100142.13;;;9.48;100.00
9257;BME280;4665;51.368;6.782;2023-03-25T13:58:38;100160.13;;;9.79;100.00
9257;BME280;4665;51.368;6.782;2023-03-25T14:01:26;100173.44;;;9.95;100.00
9257;BME280;4665;51.368;6.782;2023-03-25T14:12:11;100165.13;;;9.82;100.00
9257;BME280;4665;51.368;6.782;2023-03-25T14:14:43;100152.78;;;9.56;100.00
9257;BME280;4665;51.368;6.782;2023-03-25T14:17:12;100146.44;;;9.41;100.00
9257;BME280;4665;51.368;6.782;2023-03-25T14:19:49;100141.25;;;9.31;100.00
9257;BME280;4665;51.368;6.782;2023-03-25T14:22:28;100147.56;;;9.30;100.00
9257;BME280;4665;51.368;6.782;2023-03-25T14:24:56;100145.22;;;9.27;100.00
9257;BME280;4665;51.368;6.782;2023-03-25T14:27:26;100169.44;;;9.16;100.00
9257;BME280;4665;51.368;6.782;2023-03-25T14:32:30;100205.00;;;9.15;100.00
9257;BME280;4665;51.368;6.782;2023-03-25T14:54:18;100201.78;;;8.51;100.00
9257;BME280;4665;51.368;6.782;2023-03-25T14:56:53;100205.94;;;8.53;100.00
9257;BME280;4665;51.368;6.782;2023-03-25T14:59:26;100212.09;;;8.54;100.00
9257;BME280;4665;51.368;6.782;2023-03-25T15:01:52;100215.00;;;8.42;100.00
9257;BME280;4665;51.368;6.782;2023-03-25T15:04:32;100212.34;;;8.42;100.00
9257;BME280;4665;51.368;6.782;2023-03-25T15:07:00;100232.28;;;8.47;100.00
9257;BME280;4665;51.368;6.782;2023-03-25T15:09:27;100206.63;;;8.37;100.00
9257;BME280;4665;51.368;6.782;2023-03-25T15:11:59;100227.59;;;8.40;100.00
9257;BME280;4665;51.368;6.782;2023-03-25T15:14:28;100220.66;;;8.30;100.00
9257;BME280;4665;51.368;6.782;2023-03-25T15:16:57;100230.50;;;8.37;100.00
9257;BME280;4665;51.368;6.782;2023-03-25T15:19:22;100228.66;;;8.48;100.00
9257;BME280;4665;51.368;6.782;2023-03-25T15:24:37;100206.59;;;8.47;100.00
9257;BME280;4665;51.368;6.782;2023-03-25T15:37:59;100182.25;;;8.86;100.00
9257;BME280;4665;51.368;6.782;2023-03-25T15:40:30;100192.72;;;8.88;100.00
9257;BME280;4665;51.368;6.782;2023-03-25T15:43:18;100187.00;;;8.74;100.00
9257;BME280;4665;51.368;6.782;2023-03-25T15:51:42;100193.34;;;8.81;100.00
9257;BME280;4665;51.368;6.782;2023-03-25T15:54:23;100189.72;;;8.82;100.00
9257;BME280;4665;51.368;6.782;2023-03-25T15:56:55;100170.59;;;8.79;100.00